createdAt,value
2022-08-30T00:01:35.916Z,9.95
2022-08-30T00:04:06.029Z,11.25
2022-08-30T00:06:33.959Z,7.60
2022-08-30T00:09:02.604Z,8.93
2022-08-30T00:11:30.476Z,9.48
2022-08-30T00:13:59.886Z,9.82
2022-08-30T00:16:29.226Z,9.23
2022-08-30T00:18:57.565Z,8.20
2022-08-30T00:21:27.097Z,8.75
2022-08-30T00:23:55.198Z,8.38
2022-08-30T00:26:23.157Z,8.27
2022-08-30T00:28:51.045Z,10.20
2022-08-30T00:31:19.093Z,6.90
2022-08-30T00:33:48.513Z,8.77
2022-08-30T00:36:16.403Z,7.30
2022-08-30T00:38:44.287Z,13.57
2022-08-30T00:41:12.290Z,9.52
2022-08-30T00:43:40.190Z,9.90
2022-08-30T00:46:10.319Z,9.73
2022-08-30T00:48:46.210Z,10.82
2022-08-30T00:51:17.015Z,11.45
2022-08-30T00:53:49.386Z,7.25
2022-08-30T00:56:18.765Z,12.50
2022-08-30T00:58:50.018Z,6.72
2022-08-30T01:01:19.107Z,11.88
2022-08-30T01:03:47.719Z,11.13
2022-08-30T01:06:18.594Z,11.77
2022-08-30T01:08:47.992Z,14.32
2022-08-30T01:11:19.633Z,7.13
2022-08-30T01:13:49.502Z,7.25
2022-08-30T01:16:17.665Z,10.73
2022-08-30T01:18:47.270Z,9.18
2022-08-30T01:21:25.290Z,6.97
2022-08-30T01:23:58.006Z,8.52
2022-08-30T01:26:27.478Z,7.88
2022-08-30T01:29:01.920Z,7.57
2022-08-30T01:31:29.869Z,8.27
2022-08-30T01:33:57.875Z,6.65
2022-08-30T01:36:26.188Z,7.75
2022-08-30T01:38:58.754Z,8.68
2022-08-30T01:44:00.121Z,11.82
2022-08-30T01:46:30.869Z,8.93
2022-08-30T01:48:59.615Z,12.93
2022-08-30T01:51:29.148Z,12.32
2022-08-30T01:53:59.224Z,8.18
2022-08-30T01:56:29.580Z,10.23
2022-08-30T01:59:02.406Z,9.00
2022-08-30T02:01:32.845Z,9.60
2022-08-30T02:04:03.828Z,9.00
2022-08-30T02:06:32.112Z,8.38
2022-08-30T02:09:02.062Z,10.02
2022-08-30T02:11:29.954Z,10.50
2022-08-30T02:13:57.898Z,8.60
2022-08-30T02:16:26.474Z,13.98
2022-08-30T02:18:56.204Z,12.40
2022-08-30T02:21:24.389Z,11.85
2022-08-30T02:23:53.335Z,10.65
2022-08-30T02:26:23.478Z,9.75
2022-08-30T02:28:52.280Z,8.57
2022-08-30T02:31:21.543Z,9.20
2022-08-30T02:33:51.254Z,8.95
2022-08-30T02:36:20.695Z,9.52
2022-08-30T02:38:48.966Z,8.80
2022-08-30T02:41:18.341Z,7.22
2022-08-30T02:43:48.007Z,10.95
2022-08-30T02:46:16.323Z,8.48
2022-08-30T02:48:44.843Z,10.40
2022-08-30T02:51:15.817Z,9.48
2022-08-30T02:53:44.964Z,9.23
2022-08-30T02:56:14.091Z,12.25
2022-08-30T02:58:45.164Z,8.98
2022-08-30T03:01:18.246Z,8.38
2022-08-30T03:03:46.977Z,8.95
2022-08-30T03:06:15.237Z,7.82
2022-08-30T03:08:43.228Z,8.90
2022-08-30T03:11:13.563Z,16.13
2022-08-30T03:13:41.768Z,10.43
2022-08-30T03:16:09.722Z,9.10
2022-08-30T03:18:39.042Z,8.68
2022-08-30T03:21:11.679Z,9.63
2022-08-30T03:26:09.003Z,7.68
2022-08-30T03:28:42.684Z,10.55
2022-08-30T03:31:11.537Z,8.88
2022-08-30T03:33:41.311Z,9.30
2022-08-30T03:36:10.368Z,12.25
2022-08-30T03:38:38.352Z,9.32
2022-08-30T03:41:06.719Z,9.88
2022-08-30T03:43:36.559Z,10.80
2022-08-30T03:46:05.539Z,7.65
2022-08-30T03:48:33.468Z,9.80
2022-08-30T03:51:02.749Z,9.85
2022-08-30T03:53:34.436Z,8.63
2022-08-30T03:56:02.370Z,9.93
2022-08-30T03:58:30.379Z,10.05
2022-08-30T04:00:58.312Z,7.47
2022-08-30T04:03:26.424Z,7.38
2022-08-30T04:05:55.224Z,11.43
2022-08-30T04:08:25.604Z,11.30
2022-08-30T04:10:54.399Z,7.78
2022-08-30T04:13:23.302Z,8.43
2022-08-30T04:15:51.612Z,9.38
2022-08-30T04:18:19.516Z,9.20
2022-08-30T04:20:47.650Z,7.80
2022-08-30T04:23:16.113Z,10.00
2022-08-30T04:25:45.557Z,11.90
2022-08-30T04:28:13.647Z,9.63
2022-08-30T04:30:43.202Z,9.38
2022-08-30T04:33:11.387Z,8.70
2022-08-30T04:35:42.789Z,7.95
2022-08-30T04:38:11.784Z,9.80
2022-08-30T04:40:39.759Z,11.15
2022-08-30T04:43:12.883Z,10.38
2022-08-30T04:45:42.089Z,9.73
2022-08-30T04:48:10.324Z,9.40
2022-08-30T04:50:38.292Z,9.93
2022-08-30T04:53:12.923Z,11.05
2022-08-30T04:55:41.880Z,12.95
2022-08-30T04:58:11.735Z,7.72
2022-08-30T05:00:42.077Z,9.35
2022-08-30T05:03:10.099Z,12.65
2022-08-30T05:05:40.844Z,11.02
2022-08-30T05:08:09.637Z,10.50
2022-08-30T05:10:40.178Z,8.88
2022-08-30T05:13:09.668Z,13.73
2022-08-30T05:15:40.318Z,14.00
2022-08-30T05:18:08.682Z,12.77
2022-08-30T05:20:41.338Z,12.32
2022-08-30T05:23:09.265Z,7.50
2022-08-30T05:25:40.169Z,13.43
2022-08-30T05:28:08.215Z,11.85
2022-08-30T05:30:39.103Z,11.10
2022-08-30T05:33:07.045Z,10.98
2022-08-30T05:35:34.938Z,10.45
2022-08-30T05:38:02.929Z,10.13
2022-08-30T05:40:30.964Z,14.55
2022-08-30T05:42:59.216Z,8.77
2022-08-30T05:45:27.132Z,12.48
2022-08-30T05:47:56.488Z,15.40
2022-08-30T05:50:24.426Z,8.00
2022-08-30T05:52:52.327Z,14.75
2022-08-30T05:55:21.484Z,10.75
2022-08-30T05:57:49.454Z,11.10
2022-08-30T06:00:19.170Z,11.60
2022-08-30T06:02:47.694Z,9.82
2022-08-30T06:05:17.100Z,12.63
2022-08-30T06:07:45.071Z,13.88
2022-08-30T06:10:13.394Z,16.90
2022-08-30T06:12:43.119Z,10.77
2022-08-30T06:15:12.167Z,13.20
2022-08-30T06:17:40.158Z,11.43
2022-08-30T06:20:09.615Z,15.05
2022-08-30T06:22:39.534Z,12.32
2022-08-30T06:25:08.496Z,10.98
2022-08-30T06:27:36.460Z,15.40
2022-08-30T06:30:08.393Z,17.60
2022-08-30T06:32:36.528Z,18.13
2022-08-30T06:35:04.947Z,18.73
2022-08-30T06:37:33.805Z,17.25
2022-08-30T06:40:04.674Z,16.13
2022-08-30T06:42:34.497Z,14.65
2022-08-30T06:45:03.476Z,16.35
2022-08-30T06:47:39.574Z,15.73
2022-08-30T06:50:11.725Z,19.02
2022-08-30T06:55:10.108Z,16.88
2022-08-30T06:57:38.126Z,19.02
2022-08-30T07:00:08.725Z,24.40
2022-08-30T07:02:37.960Z,26.00
2022-08-30T07:05:06.683Z,22.83
2022-08-30T07:07:34.609Z,17.17
2022-08-30T07:10:03.627Z,22.30
2022-08-30T07:12:32.886Z,23.13
2022-08-30T07:15:00.739Z,21.10
2022-08-30T07:17:45.976Z,22.60
2022-08-30T07:20:14.301Z,18.23
2022-08-30T07:22:42.218Z,19.58
2022-08-30T07:25:10.860Z,19.02
2022-08-30T07:27:40.202Z,13.63
2022-08-30T07:30:12.947Z,16.48
2022-08-30T07:32:41.004Z,20.40
2022-08-30T07:35:09.748Z,15.73
2022-08-30T07:37:37.767Z,14.95
2022-08-30T07:40:06.388Z,13.07
2022-08-30T07:42:34.552Z,16.83
2022-08-30T07:45:04.294Z,16.45
2022-08-30T07:47:33.412Z,14.18
2022-08-30T07:50:01.348Z,14.15
2022-08-30T07:52:30.829Z,12.77
2022-08-30T07:54:59.215Z,14.40
2022-08-30T07:57:27.496Z,15.45
2022-08-30T07:59:55.433Z,14.85
2022-08-30T08:02:24.943Z,17.40
2022-08-30T08:04:53.007Z,14.38
2022-08-30T08:07:21.003Z,13.10
2022-08-30T08:09:48.884Z,14.05
2022-08-30T08:12:16.816Z,14.98
2022-08-30T08:14:44.832Z,13.88
2022-08-30T08:17:12.745Z,14.60
2022-08-30T08:19:42.005Z,13.60
2022-08-30T08:22:20.525Z,12.65
2022-08-30T08:24:49.507Z,12.43
2022-08-30T08:27:17.661Z,12.80
2022-08-30T08:29:45.610Z,13.80
2022-08-30T08:32:19.486Z,10.70
2022-08-30T08:34:48.752Z,8.57
2022-08-30T08:37:17.413Z,12.48
2022-08-30T08:39:48.708Z,12.70
2022-08-30T08:42:25.776Z,9.85
2022-08-30T08:45:00.956Z,11.68
2022-08-30T08:47:38.461Z,9.50
2022-08-30T08:50:13.205Z,10.57
2022-08-30T08:53:13.355Z,11.68
2022-08-30T08:58:23.927Z,10.60
2022-08-30T09:00:54.113Z,9.15
2022-08-30T09:03:23.739Z,9.93
2022-08-30T09:05:53.251Z,11.63
2022-08-30T09:08:23.675Z,8.80
2022-08-30T09:10:58.522Z,11.50
2022-08-30T09:13:26.614Z,9.65
2022-08-30T09:15:59.561Z,7.78
2022-08-30T09:18:45.414Z,6.40
2022-08-30T09:21:21.635Z,9.20
2022-08-30T09:23:51.949Z,9.07
2022-08-30T09:26:30.963Z,7.53
2022-08-30T09:29:00.028Z,10.00
2022-08-30T09:31:30.692Z,9.23
2022-08-30T09:34:03.383Z,6.72
2022-08-30T09:36:36.202Z,7.80
2022-08-30T09:39:07.324Z,7.85
2022-08-30T09:41:42.010Z,7.32
2022-08-30T09:44:15.220Z,6.45
2022-08-30T09:46:49.012Z,4.32
2022-08-30T09:49:30.217Z,6.20
2022-08-30T09:52:17.961Z,6.30
2022-08-30T09:55:04.111Z,7.70
2022-08-30T09:57:40.901Z,6.78
2022-08-30T10:00:14.832Z,9.30
2022-08-30T10:02:57.545Z,6.60
2022-08-30T10:05:33.506Z,7.25
2022-08-30T10:08:14.166Z,7.65
2022-08-30T10:10:48.445Z,10.82
2022-08-30T10:13:37.797Z,9.98
2022-08-30T10:16:16.004Z,7.22
2022-08-30T10:18:55.950Z,5.72
2022-08-30T10:21:29.743Z,7.18
2022-08-30T10:24:03.882Z,5.90
2022-08-30T10:26:36.257Z,8.98
2022-08-30T10:29:10.003Z,9.82
2022-08-30T10:31:43.186Z,5.85
2022-08-30T10:34:20.232Z,7.47
2022-08-30T10:36:55.114Z,5.47
2022-08-30T10:39:27.844Z,6.45
2022-08-30T10:42:08.418Z,5.57
2022-08-30T10:44:41.430Z,4.95
2022-08-30T10:47:23.156Z,8.98
2022-08-30T10:49:58.448Z,9.27
2022-08-30T10:52:35.359Z,5.03
2022-08-30T10:55:11.197Z,8.50
2022-08-30T10:57:43.061Z,9.75
2022-08-30T11:03:39.756Z,6.03
2022-08-30T11:06:17.060Z,4.63
2022-08-30T11:09:07.679Z,5.30
2022-08-30T11:11:50.992Z,10.10
2022-08-30T11:14:25.526Z,4.30
2022-08-30T11:16:56.456Z,7.32
2022-08-30T11:19:32.229Z,6.15
2022-08-30T11:22:13.804Z,3.85
2022-08-30T11:27:58.448Z,8.40
2022-08-30T11:30:52.191Z,4.28
2022-08-30T11:33:42.002Z,3.50
2022-08-30T11:36:11.078Z,4.25
2022-08-30T11:39:06.070Z,4.45
2022-08-30T11:41:42.485Z,5.35
2022-08-30T11:44:28.724Z,6.57
2022-08-30T11:46:58.582Z,3.03
2022-08-30T11:50:09.816Z,3.35
2022-08-30T11:52:54.790Z,5.22
2022-08-30T11:55:45.201Z,3.95
2022-08-30T11:58:26.999Z,5.47
2022-08-30T12:01:42.290Z,2.88
2022-08-30T12:04:15.319Z,3.10
2022-08-30T12:06:54.114Z,4.93
2022-08-30T12:10:02.298Z,3.10
2022-08-30T12:12:51.529Z,5.80
2022-08-30T12:15:49.366Z,4.65
2022-08-30T12:18:38.487Z,5.90
2022-08-30T12:21:27.175Z,3.53
2022-08-30T12:24:03.707Z,4.43
2022-08-30T12:26:35.317Z,6.05
2022-08-30T12:29:12.053Z,6.70
2022-08-30T12:31:42.797Z,3.50
2022-08-30T12:34:21.238Z,5.35
2022-08-30T12:36:58.512Z,2.88
2022-08-30T12:39:30.363Z,5.93
2022-08-30T12:42:11.428Z,10.90
2022-08-30T12:44:46.488Z,7.18
2022-08-30T12:47:18.641Z,4.15
2022-08-30T12:49:49.439Z,3.65
2022-08-30T12:52:21.216Z,3.45
2022-08-30T12:54:49.517Z,4.22
2022-08-30T12:57:38.593Z,5.25
2022-08-30T13:00:09.089Z,3.17
2022-08-30T13:02:47.855Z,8.25
2022-08-30T13:05:39.230Z,4.60
2022-08-30T13:08:22.511Z,5.05
2022-08-30T13:11:02.298Z,3.35
2022-08-30T13:13:41.099Z,6.13
2022-08-30T13:16:29.317Z,3.97
2022-08-30T13:19:27.357Z,2.38
2022-08-30T13:21:58.138Z,3.20
2022-08-30T13:24:26.521Z,2.55
2022-08-30T13:26:56.646Z,3.42
2022-08-30T13:29:28.164Z,3.47
2022-08-30T13:31:57.020Z,3.30
2022-08-30T13:34:25.672Z,7.70
2022-08-30T13:36:57.763Z,4.53
2022-08-30T13:39:26.543Z,2.60
2022-08-30T13:41:54.886Z,5.68
2022-08-30T13:44:42.777Z,5.30
2022-08-30T13:50:01.034Z,3.17
2022-08-30T13:52:30.506Z,5.85
2022-08-30T13:54:59.057Z,4.47
2022-08-30T14:00:21.800Z,2.80
2022-08-30T14:05:47.849Z,3.58
2022-08-30T14:11:05.467Z,5.20
2022-08-30T14:13:34.539Z,6.43
2022-08-30T14:18:55.311Z,4.22
2022-08-30T14:21:25.033Z,3.88
2022-08-30T14:23:55.944Z,5.57
2022-08-30T14:26:28.392Z,4.85
2022-08-30T14:29:01.337Z,5.57
2022-08-30T14:31:30.149Z,4.65
2022-08-30T14:34:00.966Z,6.38
2022-08-30T14:36:28.897Z,3.30
2022-08-30T14:38:58.324Z,4.88
2022-08-30T14:41:26.323Z,3.80
2022-08-30T14:43:54.389Z,2.58
2022-08-30T14:46:25.691Z,3.47
2022-08-30T14:48:54.333Z,2.90
2022-08-30T14:51:24.193Z,2.83
2022-08-30T14:53:53.614Z,2.75
2022-08-30T14:56:24.933Z,4.35
2022-08-30T14:59:00.168Z,3.63
2022-08-30T15:01:29.757Z,2.13
2022-08-30T15:03:58.628Z,3.10
2022-08-30T15:06:27.103Z,3.10
2022-08-30T15:08:55.799Z,2.20
2022-08-30T15:11:26.750Z,3.70
2022-08-30T15:13:58.472Z,3.97
2022-08-30T15:16:30.024Z,2.72
2022-08-30T15:21:28.349Z,3.28
2022-08-30T15:23:57.807Z,6.53
2022-08-30T15:26:27.427Z,4.07
2022-08-30T15:28:55.707Z,9.38
2022-08-30T15:31:28.119Z,5.38
2022-08-30T15:36:25.173Z,4.07
2022-08-30T15:38:55.377Z,2.80
2022-08-30T15:41:24.090Z,4.20
2022-08-30T15:43:53.854Z,5.03
2022-08-30T15:46:29.529Z,2.85
2022-08-30T15:49:01.206Z,2.47
2022-08-30T15:51:30.859Z,4.93
2022-08-30T15:54:09.748Z,3.00
2022-08-30T15:56:40.243Z,6.72
2022-08-30T15:59:15.122Z,2.67
2022-08-30T16:01:43.604Z,4.97
2022-08-30T16:04:11.833Z,2.80
2022-08-30T16:06:40.609Z,3.63
2022-08-30T16:09:10.216Z,4.15
2022-08-30T16:11:39.427Z,5.50
2022-08-30T16:14:07.557Z,4.35
2022-08-30T16:16:39.935Z,3.03
2022-08-30T16:19:10.086Z,2.88
2022-08-30T16:21:39.807Z,4.30
2022-08-30T16:24:13.856Z,36.15
2022-08-30T16:26:42.757Z,7.20
2022-08-30T16:29:12.338Z,3.25
2022-08-30T16:31:44.144Z,4.43
2022-08-30T16:34:12.634Z,4.45
2022-08-30T16:36:40.852Z,3.92
2022-08-30T16:39:12.697Z,7.10
2022-08-30T16:41:41.026Z,5.30
2022-08-30T16:44:09.249Z,3.25
2022-08-30T16:46:42.604Z,3.90
2022-08-30T16:49:11.829Z,3.75
2022-08-30T16:51:39.758Z,2.75
2022-08-30T16:54:09.074Z,3.45
2022-08-30T16:56:38.487Z,3.15
2022-08-30T16:59:11.222Z,6.72
2022-08-30T17:01:42.385Z,2.78
2022-08-30T17:04:12.995Z,7.53
2022-08-30T17:06:46.397Z,3.78
2022-08-30T17:09:15.142Z,6.55
2022-08-30T17:11:43.526Z,5.22
2022-08-30T17:14:11.420Z,5.38
2022-08-30T17:16:41.394Z,4.00
2022-08-30T17:19:11.654Z,4.88
2022-08-30T17:21:39.638Z,5.32
2022-08-30T17:24:07.780Z,2.90
2022-08-30T17:26:38.029Z,3.65
2022-08-30T17:29:07.802Z,7.35
2022-08-30T17:31:37.466Z,11.02
2022-08-30T17:34:06.358Z,6.93
2022-08-30T17:36:37.455Z,4.53
2022-08-30T17:39:10.484Z,9.48
2022-08-30T17:41:40.055Z,4.95
2022-08-30T17:44:13.648Z,5.07
2022-08-30T17:46:41.909Z,5.07
2022-08-30T17:49:10.580Z,5.80
2022-08-30T17:51:42.746Z,6.10
2022-08-30T17:54:11.987Z,6.43
2022-08-30T17:56:40.513Z,4.45
2022-08-30T17:59:09.243Z,5.88
2022-08-30T18:01:38.313Z,4.20
2022-08-30T18:04:06.773Z,4.85
2022-08-30T18:06:34.865Z,6.68
2022-08-30T18:09:04.867Z,10.10
2022-08-30T18:11:35.987Z,14.18
2022-08-30T18:14:04.382Z,14.43
2022-08-30T18:16:33.599Z,12.60
2022-08-30T18:19:03.991Z,8.90
2022-08-30T18:21:32.121Z,7.43
2022-08-30T18:24:00.450Z,6.35
2022-08-30T18:26:30.575Z,5.25
2022-08-30T18:28:59.179Z,5.88
2022-08-30T18:31:28.407Z,7.00
2022-08-30T18:33:57.393Z,7.50
2022-08-30T18:36:28.330Z,5.17
2022-08-30T18:38:56.430Z,4.85
2022-08-30T18:41:26.791Z,6.47
2022-08-30T18:44:17.117Z,6.53
2022-08-30T18:46:55.928Z,3.85
2022-08-30T18:49:24.600Z,6.05
2022-08-30T18:51:52.587Z,6.40
2022-08-30T18:54:20.833Z,3.65
2022-08-30T18:56:49.178Z,4.03
2022-08-30T18:59:18.801Z,4.82
2022-08-30T19:01:47.144Z,7.38
2022-08-30T19:04:29.627Z,6.85
2022-08-30T19:07:03.705Z,6.10
2022-08-30T19:09:31.773Z,6.40
2022-08-30T19:11:59.688Z,7.57
2022-08-30T19:14:29.138Z,6.15
2022-08-30T19:16:57.725Z,5.15
2022-08-30T19:19:27.445Z,6.63
2022-08-30T19:21:55.796Z,6.63
2022-08-30T19:24:23.873Z,4.72
2022-08-30T19:26:52.279Z,5.47
2022-08-30T19:29:20.460Z,4.47
2022-08-30T19:31:51.553Z,5.78
2022-08-30T19:34:20.349Z,6.07
2022-08-30T19:36:49.875Z,9.32
2022-08-30T19:39:17.825Z,4.50
2022-08-30T19:41:45.738Z,3.78
2022-08-30T19:44:13.703Z,5.57
2022-08-30T19:46:41.639Z,4.43
2022-08-30T19:49:12.556Z,4.55
2022-08-30T19:54:29.034Z,6.50
2022-08-30T19:56:57.153Z,4.63
2022-08-30T19:59:25.261Z,3.03
2022-08-30T20:01:53.284Z,3.65
2022-08-30T20:04:22.703Z,3.95
2022-08-30T20:06:50.724Z,4.20
2022-08-30T20:09:18.892Z,4.88
2022-08-30T20:11:46.917Z,5.05
2022-08-30T20:14:20.544Z,6.32
2022-08-30T20:16:49.766Z,4.70
2022-08-30T20:19:18.447Z,4.38
2022-08-30T20:21:50.139Z,4.90
2022-08-30T20:24:18.061Z,5.88
2022-08-30T20:26:45.991Z,5.43
2022-08-30T20:29:13.892Z,3.00
2022-08-30T20:31:41.860Z,3.40
2022-08-30T20:34:10.010Z,1.70
2022-08-30T20:36:40.261Z,4.53
2022-08-30T20:39:10.106Z,3.38
2022-08-30T20:41:38.730Z,4.95
2022-08-30T20:44:11.889Z,3.88
2022-08-30T20:46:44.566Z,5.38
2022-08-30T20:49:13.803Z,5.10
2022-08-30T20:51:42.133Z,7.00
2022-08-30T20:54:11.436Z,4.15
2022-08-30T20:56:39.579Z,4.00
2022-08-30T20:59:07.544Z,2.40
2022-08-30T21:01:38.419Z,3.13
2022-08-30T21:04:08.031Z,2.33
2022-08-30T21:06:37.652Z,3.45
2022-08-30T21:09:07.312Z,2.83
2022-08-30T21:11:38.321Z,2.70
2022-08-30T21:14:12.785Z,4.30
2022-08-30T21:16:40.845Z,3.50
2022-08-30T21:19:08.939Z,4.45
2022-08-30T21:21:36.857Z,3.50
2022-08-30T21:24:09.890Z,3.10
2022-08-30T21:26:39.882Z,3.28
2022-08-30T21:29:08.596Z,3.63
2022-08-30T21:31:38.725Z,6.90
2022-08-30T21:34:08.496Z,7.90
2022-08-30T21:36:46.532Z,5.22
2022-08-30T21:39:21.322Z,3.22
2022-08-30T21:41:54.434Z,2.67
2022-08-30T21:44:25.545Z,3.03
2022-08-30T21:46:54.925Z,7.05
2022-08-30T21:49:24.983Z,3.35
2022-08-30T21:51:54.749Z,6.45
2022-08-30T21:54:24.670Z,3.67
2022-08-30T21:57:01.206Z,5.50
2022-08-30T21:59:29.632Z,5.35
2022-08-30T22:01:59.047Z,2.83
2022-08-30T22:06:37.880Z,3.80
2022-08-30T22:09:09.246Z,2.67
2022-08-30T22:11:38.110Z,5.93
2022-08-30T22:14:08.394Z,6.38
2022-08-30T22:16:36.918Z,4.15
2022-08-30T22:19:04.998Z,2.80
2022-08-30T22:21:37.530Z,2.95
2022-08-30T22:26:34.772Z,3.47
2022-08-30T22:29:04.092Z,2.90
2022-08-30T22:31:32.281Z,2.20
2022-08-30T22:34:00.622Z,6.80
2022-08-30T22:36:32.516Z,1.63
2022-08-30T22:39:07.915Z,2.75
2022-08-30T22:41:35.940Z,3.67
2022-08-30T22:44:04.320Z,3.58
2022-08-30T22:46:34.255Z,3.08
2022-08-30T22:49:03.649Z,1.90
2022-08-30T22:51:31.689Z,1.95
2022-08-30T22:54:01.099Z,3.78
2022-08-30T22:56:30.785Z,2.20
2022-08-30T22:58:58.714Z,2.45
2022-08-30T23:01:30.229Z,4.32
2022-08-30T23:03:58.979Z,1.45
2022-08-30T23:06:27.013Z,2.28
2022-08-30T23:08:55.192Z,3.70
2022-08-30T23:11:23.659Z,3.97
2022-08-30T23:13:53.609Z,2.35
2022-08-30T23:16:22.263Z,1.60
2022-08-30T23:18:50.710Z,1.50
2022-08-30T23:21:20.944Z,2.58
2022-08-30T23:24:06.709Z,1.30
2022-08-30T23:26:53.098Z,1.90
2022-08-30T23:29:39.767Z,4.43
2022-08-30T23:32:25.492Z,1.58
2022-08-30T23:35:10.862Z,3.22
2022-08-30T23:37:56.166Z,1.73
2022-08-30T23:40:41.896Z,3.85
2022-08-30T23:43:28.420Z,2.38
2022-08-30T23:46:19.162Z,3.65
2022-08-30T23:49:05.252Z,3.83
2022-08-30T23:51:50.408Z,8.57
2022-08-30T23:54:35.773Z,3.50
2022-08-30T23:57:20.961Z,1.83
